Time;durP1;ratioP1;P1;durP2;ratioP2;P2;SDS_P1;SDS_P2;PMS_P1;PMS_P2;Temp;Humidity;BMP_temperature;BMP_pressure;BME280_temperature;BME280_humidity;BME280_pressure;Samples;Min_cycle;Max_cycle;Signal;HPM_P1;HPM_P2
2023/08/18 00:00:32;;;;;;;;;;;;;;;;;;2097475;28;19917;-72
2023/08/18 00:01:53;;;;;;;;;;;;;;;;;;2093195;28;19920;-74
2023/08/18 00:03:14;;;;;;;;;;;;;;;;;;2095290;28;19920;-73
2023/08/18 00:04:34;;;;;;;;;;;;;;;;;;2090432;28;20288;-73
2023/08/18 00:05:55;;;;;;;;;;;;;;;;;;2091337;28;19924;-72
2023/08/18 00:07:16;;;;;;;;;;;;;;;;;;2092697;28;19974;-74
2023/08/18 00:08:36;;;;;;;;;;;;;;;;;;2092561;28;19946;-74
2023/08/18 00:09:57;;;;;;;;;;;;;;;;;;2091709;28;20064;-73
2023/08/18 00:11:18;;;;;;;;;;;;;;;;;;2098571;28;19913;-72
2023/08/18 00:12:38;;;;;;;;;;;;;;;;;;2089940;28;19921;-72
2023/08/18 00:13:59;;;;;;;;;;;;;;;;;;2087916;28;19913;-73
2023/08/18 00:15:20;;;;;;;;;;;;;;;;;;2092971;28;19920;-72
2023/08/18 00:16:40;;;;;;;;;;;;;;;;;;2094313;28;19975;-72
2023/08/18 00:18:02;;;;;;;;;;;;;;;;;;2088848;28;19970;-73
2023/08/18 00:19:23;;;;;;;;;;;;;;;;;;2089297;28;19917;-72
2023/08/18 00:20:43;;;;;;;;;;;;;;;;;;2093733;28;19958;-72
2023/08/18 00:22:04;;;;;;;;;;;;;;;;;;2091142;28;19917;-72
2023/08/18 00:23:25;;;;;;;;;;;;;;;;;;2091007;28;19928;-74
2023/08/18 00:24:45;;;;;;;;;;;;;;;;;;2088181;28;19962;-73
2023/08/18 00:26:08;;;;;;;;;;;;;;;;;;2090647;28;19924;-72
2023/08/18 00:27:30;;;;;;;;;;;;;;;;;;2085528;28;19970;-72
2023/08/18 00:28:50;;;;;;;;;;;;;;;;;;2092223;28;20383;-72
2023/08/18 00:30:11;;;;;;;;;;;;;;;;;;2089117;28;19921;-72
2023/08/18 00:31:32;;;;;;;;;;;;;;;;;;2091614;28;19920;-74
2023/08/18 00:32:52;;;;;;;;;;;;;;;;;;2099195;28;20309;-72
2023/08/18 00:34:13;;;;;;;;;;;;;;;;;;2083732;28;19920;-72
2023/08/18 00:35:34;;;;;;;;;;;;;;;;;;2088605;28;19916;-73
2023/08/18 00:36:56;;;;;;;;;;;;;;;;;;2093230;28;19920;-72
2023/08/18 00:38:17;;;;;;;;;;;;;;;;;;2091879;28;19924;-72
2023/08/18 00:39:37;;;;;;;;;;;;;;;;;;2092582;28;19990;-72
2023/08/18 00:40:58;;;;;;;;;;;;;;;;;;2088252;28;19970;-72
2023/08/18 00:42:19;;;;;;;;;;;;;;;;;;2090152;28;20288;-72
2023/08/18 00:43:39;;;;;;;;;;;;;;;;;;2093429;28;19970;-72
2023/08/18 00:45:00;;;;;;;;;;;;;;;;;;2085440;28;19971;-75
2023/08/18 00:46:21;;;;;;;;;;;;;;;;;;2089730;28;19917;-72
2023/08/18 00:47:41;;;;;;;;;;;;;;;;;;2090779;28;19943;-73
2023/08/18 00:49:02;;;;;;;;;;;;;;;;;;2091112;28;19912;-72
2023/08/18 00:50:24;;;;;;;;;;;;;;;;;;2092783;28;20253;-72
2023/08/18 00:51:44;;;;;;;;;;;;;;;;;;2094954;28;19912;-73
2023/08/18 00:53:05;;;;;;;;;;;;;;;;;;2094717;28;19912;-73
2023/08/18 00:54:26;;;;;;;;;;;;;;;;;;2089713;28;19928;-72
2023/08/18 00:55:46;;;;;;;;;;;;;;;;;;2095618;28;19925;-72
2023/08/18 00:57:07;;;;;;;;;;;;;;;;;;2088247;28;19932;-72
2023/08/18 00:58:29;;;;;;;;;;;;;;;;;;2094425;28;19916;-72
2023/08/18 00:59:49;;;;;;;;;;;;;;;;;;2094954;28;19913;-72
2023/08/18 01:01:10;;;;;;;;;;;;;;;;;;2091725;28;19909;-72
2023/08/18 01:02:31;;;;;;;;;;;;;;;;;;2097229;28;19915;-72
2023/08/18 01:03:51;;;;;;;;;;;;;;;;;;2088446;28;19927;-72
2023/08/18 01:05:12;;;;;;;;;;;;;;;;;;2093034;28;20283;-72
2023/08/18 01:06:33;;;;;;;;;;;;;;;;;;2088441;28;19926;-72
2023/08/18 01:07:53;;;;;;;;;;;;;;;;;;2091009;28;19997;-72
2023/08/18 01:09:14;;;;;;;;;;;;;;;;;;2091377;28;20580;-72
2023/08/18 01:10:35;;;;;;;;;;;;;;;;;;2093519;28;19936;-72
2023/08/18 01:11:55;;;;;;;;;;;;;;;;;;2088842;28;19912;-72
2023/08/18 01:13:16;;;;;;;;;;;;;;;;;;2090713;28;20287;-73
2023/08/18 01:14:37;;;;;;;;;;;;;;;;;;2091925;28;19962;-72
2023/08/18 01:15:57;;;;;;;;;;;;;;;;;;2090182;28;19920;-74
2023/08/18 01:17:18;;;;;;;;;;;;;;;;;;2084401;28;19912;-72
2023/08/18 01:18:39;;;;;;;;;;;;;;;;;;2091908;28;19912;-73
2023/08/18 01:20:00;;;;;;;;;;;;;;;;;;2087215;28;20367;-73
2023/08/18 01:21:20;;;;;;;;;;;;;;;;;;2095924;28;19912;-73
2023/08/18 01:22:41;;;;;;;;;;;;;;;;;;2081593;28;19913;-74
2023/08/18 01:24:03;;;;;;;;;;;;;;;;;;2094893;28;19916;-73
2023/08/18 01:25:23;;;;;;;;;;;;;;;;;;2086429;28;19959;-73
2023/08/18 01:26:44;;;;;;;;;;;;;;;;;;2079914;28;19917;-72
2023/08/18 01:28:06;;;;;;;;;;;;;;;;;;2080678;28;19920;-73
2023/08/18 01:29:27;;;;;;;;;;;;;;;;;;2088751;28;20368;-72
2023/08/18 01:30:48;;;;;;;;;;;;;;;;;;2089668;28;19913;-72
2023/08/18 01:32:09;;;;;;;;;;;;;;;;;;2093439;28;20384;-72
2023/08/18 01:33:29;;;;;;;;;;;;;;;;;;2092346;28;19912;-72
2023/08/18 01:34:50;;;;;;;;;;;;;;;;;;2091537;28;19920;-73
2023/08/18 01:36:11;;;;;;;;;;;;;;;;;;2082456;28;19983;-73
2023/08/18 01:37:31;;;;;;;;;;;;;;;;;;2083727;28;19913;-73
2023/08/18 01:38:52;;;;;;;;;;;;;;;;;;2082913;28;19951;-74
2023/08/18 01:40:13;;;;;;;;;;;;;;;;;;2083405;28;19913;-75
2023/08/18 01:41:33;;;;;;;;;;;;;;;;;;2086002;28;19920;-72
2023/08/18 01:42:54;;;;;;;;;;;;;;;;;;2089666;28;19921;-72
2023/08/18 01:44:15;;;;;;;;;;;;;;;;;;2077021;28;20273;-72
2023/08/18 01:45:36;;;;;;;;;;;;;;;;;;2079559;28;19921;-72
2023/08/18 01:46:57;;;;;;;;;;;;;;;;;;2079873;28;19923;-72
2023/08/18 01:48:18;;;;;;;;;;;;;;;;;;2083860;28;19912;-73
2023/08/18 01:49:38;;;;;;;;;;;;;;;;;;2089248;28;19913;-72
2023/08/18 01:50:59;;;;;;;;;;;;;;;;;;2075947;28;19921;-72
2023/08/18 01:52:20;;;;;;;;;;;;;;;;;;2078209;28;19917;-73
2023/08/18 01:53:41;;;;;;;;;;;;;;;;;;2086679;28;19913;-72
2023/08/18 01:55:01;;;;;;;;;;;;;;;;;;2083898;28;19920;-74
2023/08/18 01:56:22;;;;;;;;;;;;;;;;;;2075832;28;19921;-72
2023/08/18 01:57:43;;;;;;;;;;;;;;;;;;2084264;28;19921;-73
2023/08/18 01:59:04;;;;;;;;;;;;;;;;;;2090076;28;20007;-72
2023/08/18 02:00:24;;;;;;;;;;;;;;;;;;2074620;28;19913;-73
2023/08/18 02:01:45;;;;;;;;;;;;;;;;;;2080384;28;20289;-73
2023/08/18 02:03:07;;;;;;;;;;;;;;;;;;2091155;28;19913;-73
2023/08/18 02:04:27;;;;;;;;;;;;;;;;;;2087950;28;19917;-72
2023/08/18 02:05:48;;;;;;;;;;;;;;;;;;2089225;28;19932;-73
2023/08/18 02:07:09;;;;;;;;;;;;;;;;;;2085735;28;19917;-72
2023/08/18 02:08:30;;;;;;;;;;;;;;;;;;2084796;28;19917;-73
2023/08/18 02:09:50;;;;;;;;;;;;;;;;;;2085030;28;20361;-71
2023/08/18 02:11:11;;;;;;;;;;;;;;;;;;2091223;28;19978;-73
2023/08/18 02:12:32;;;;;;;;;;;;;;;;;;2085011;28;19913;-72
2023/08/18 02:13:52;;;;;;;;;;;;;;;;;;2079079;28;19967;-71
2023/08/18 02:15:13;;;;;;;;;;;;;;;;;;2082077;28;19913;-72
2023/08/18 02:16:34;;;;;;;;;;;;;;;;;;2091641;28;19920;-74
2023/08/18 02:17:55;;;;;;;;;;;;;;;;;;2093923;28;19943;-72
2023/08/18 02:19:15;;;;;;;;;;;;;;;;;;2092183;28;19917;-72
2023/08/18 02:20:38;;;;;;;;;;;;;;;;;;2084819;28;19971;-71
2023/08/18 02:21:58;;;;;;;;;;;;;;;;;;2083174;28;19917;-72
2023/08/18 02:23:19;;;;;;;;;;;;;;;;;;2096276;28;19912;-72
2023/08/18 02:24:40;;;;;;;;;;;;;;;;;;2088338;28;19921;-72
2023/08/18 02:26:00;;;;;;;;;;;;;;;;;;2090221;28;20301;-73
2023/08/18 02:27:21;;;;;;;;;;;;;;;;;;2084623;28;19944;-74
2023/08/18 02:28:42;;;;;;;;;;;;;;;;;;2097189;28;19962;-72
2023/08/18 02:30:03;;;;;;;;;;;;;;;;;;2095754;28;19966;-72
2023/08/18 02:31:24;;;;;;;;;;;;;;;;;;2093477;28;19917;-73
2023/08/18 02:32:45;;;;;;;;;;;;;;;;;;2093758;28;19958;-73
2023/08/18 02:34:05;;;;;;;;;;;;;;;;;;2091975;28;19913;-74
2023/08/18 02:35:26;;;;;;;;;;;;;;;;;;2093717;28;19917;-73
2023/08/18 02:36:47;;;;;;;;;;;;;;;;;;2090635;28;20314;-72
2023/08/18 02:38:09;;;;;;;;;;;;;;;;;;2085768;28;19913;-74
2023/08/18 02:39:29;;;;;;;;;;;;;;;;;;2093110;28;19916;-75
2023/08/18 02:40:51;;;;;;;;;;;;;;;;;;2091167;28;20352;-72
2023/08/18 02:42:12;;;;;;;;;;;;;;;;;;2092159;28;19913;-72
2023/08/18 02:43:33;;;;;;;;;;;;;;;;;;2096200;28;19928;-72
2023/08/18 02:44:54;;;;;;;;;;;;;;;;;;2095825;28;20331;-72
2023/08/18 02:46:14;;;;;;;;;;;;;;;;;;2091633;28;19921;-74
2023/08/18 02:47:38;;;;;;;;;;;;;;;;;;2092035;28;19913;-72
2023/08/18 02:48:58;;;;;;;;;;;;;;;;;;2092383;28;19959;-72
2023/08/18 02:50:19;;;;;;;;;;;;;;;;;;2094469;28;19913;-73
2023/08/18 02:51:40;;;;;;;;;;;;;;;;;;2098344;28;19942;-73
2023/08/18 02:53:03;;;;;;;;;;;;;;;;;;2091013;28;20395;-72
2023/08/18 02:54:23;;;;;;;;;;;;;;;;;;2092464;28;20335;-72
2023/08/18 02:55:44;;;;;;;;;;;;;;;;;;2095560;28;19909;-72
2023/08/18 02:57:05;;;;;;;;;;;;;;;;;;2104533;28;19942;-72
2023/08/18 02:58:27;;;;;;;;;;;;;;;;;;2105717;28;20290;-72
2023/08/18 02:59:47;;;;;;;;;;;;;;;;;;2097757;28;19912;-73
2023/08/18 03:01:08;;;;;;;;;;;;;;;;;;2097385;28;20360;-72
2023/08/18 03:02:29;;;;;;;;;;;;;;;;;;2089545;28;19913;-73
2023/08/18 03:03:49;;;;;;;;;;;;;;;;;;2095317;28;19916;-72
2023/08/18 03:05:10;;;;;;;;;;;;;;;;;;2098641;28;19909;-72
2023/08/18 03:06:31;;;;;;;;;;;;;;;;;;2090384;28;19924;-72
2023/08/18 03:07:52;;;;;;;;;;;;;;;;;;2092182;28;20288;-73
2023/08/18 03:09:12;;;;;;;;;;;;;;;;;;2092509;28;19916;-73
2023/08/18 03:10:33;;;;;;;;;;;;;;;;;;2094296;28;19913;-73
2023/08/18 03:11:54;;;;;;;;;;;;;;;;;;2091236;28;19974;-72
2023/08/18 03:13:14;;;;;;;;;;;;;;;;;;2092962;28;19914;-72
2023/08/18 03:14:35;;;;;;;;;;;;;;;;;;2095275;28;19912;-72
2023/08/18 03:15:56;;;;;;;;;;;;;;;;;;2092505;28;19914;-73
2023/08/18 03:17:16;;;;;;;;;;;;;;;;;;2092548;28;19921;-72
2023/08/18 03:18:37;;;;;;;;;;;;;;;;;;2093044;28;19970;-73
2023/08/18 03:19:58;;;;;;;;;;;;;;;;;;2094460;28;19966;-72
2023/08/18 03:21:18;;;;;;;;;;;;;;;;;;2092230;28;20556;-72
2023/08/18 03:22:39;;;;;;;;;;;;;;;;;;2087418;28;19913;-73
2023/08/18 03:24:00;;;;;;;;;;;;;;;;;;2090223;28;19947;-73
2023/08/18 03:25:21;;;;;;;;;;;;;;;;;;2073900;28;19918;-73
2023/08/18 03:26:41;;;;;;;;;;;;;;;;;;2085632;28;19928;-72
2023/08/18 03:28:03;;;;;;;;;;;;;;;;;;2093163;28;19962;-74
2023/08/18 03:29:23;;;;;;;;;;;;;;;;;;2091916;28;20225;-72
2023/08/18 03:30:44;;;;;;;;;;;;;;;;;;2091585;28;19916;-72
2023/08/18 03:32:05;;;;;;;;;;;;;;;;;;2093440;28;19963;-72
2023/08/18 03:33:25;;;;;;;;;;;;;;;;;;2098672;28;19916;-72
2023/08/18 03:34:47;;;;;;;;;;;;;;;;;;2093991;28;20382;-72
2023/08/18 03:36:08;;;;;;;;;;;;;;;;;;2091693;28;20244;-72
2023/08/18 03:37:28;;;;;;;;;;;;;;;;;;2090975;28;19917;-72
2023/08/18 03:38:49;;;;;;;;;;;;;;;;;;2088751;28;19966;-72
2023/08/18 03:40:10;;;;;;;;;;;;;;;;;;2095607;28;19963;-73
2023/08/18 03:41:30;;;;;;;;;;;;;;;;;;2094551;28;19974;-73
2023/08/18 03:42:51;;;;;;;;;;;;;;;;;;2093521;28;19916;-72
2023/08/18 03:44:12;;;;;;;;;;;;;;;;;;2099365;28;19966;-72
2023/08/18 03:45:33;;;;;;;;;;;;;;;;;;2097685;28;19924;-72
2023/08/18 03:46:56;;;;;;;;;;;;;;;;;;2090709;28;19921;-72
2023/08/18 03:48:17;;;;;;;;;;;;;;;;;;2090909;28;20007;-72
2023/08/18 03:49:37;;;;;;;;;;;;;;;;;;2098396;28;19950;-73
2023/08/18 03:50:58;;;;;;;;;;;;;;;;;;2086486;28;19913;-72
2023/08/18 03:52:19;;;;;;;;;;;;;;;;;;2085425;28;19917;-72
2023/08/18 03:53:39;;;;;;;;;;;;;;;;;;2093576;28;19916;-72
2023/08/18 03:55:00;;;;;;;;;;;;;;;;;;2090541;28;19912;-73
2023/08/18 03:56:21;;;;;;;;;;;;;;;;;;2091249;28;19947;-72
2023/08/18 03:57:42;;;;;;;;;;;;;;;;;;2085018;28;19925;-73
2023/08/18 03:59:03;;;;;;;;;;;;;;;;;;2086900;28;19912;-72
2023/08/18 04:00:25;;;;;;;;;;;;;;;;;;2083359;28;20425;-73
2023/08/18 04:01:46;;;;;;;;;;;;;;;;;;2084395;28;19920;-73
2023/08/18 04:03:07;;;;;;;;;;;;;;;;;;2083196;28;20321;-73
2023/08/18 04:04:28;;;;;;;;;;;;;;;;;;2081646;28;19940;-73
2023/08/18 04:05:48;;;;;;;;;;;;;;;;;;2084350;28;19943;-72
2023/08/18 04:07:09;;;;;;;;;;;;;;;;;;2084787;28;20382;-73
2023/08/18 04:08:30;;;;;;;;;;;;;;;;;;2082648;28;20045;-74
2023/08/18 04:09:50;;;;;;;;;;;;;;;;;;2089708;28;19931;-73
2023/08/18 04:11:11;;;;;;;;;;;;;;;;;;2075204;28;19971;-72
2023/08/18 04:12:32;;;;;;;;;;;;;;;;;;2080248;28;19917;-72
2023/08/18 04:13:52;;;;;;;;;;;;;;;;;;2085344;28;19913;-72
2023/08/18 04:15:14;;;;;;;;;;;;;;;;;;2086813;28;19923;-74
2023/08/18 04:16:34;;;;;;;;;;;;;;;;;;2083718;28;19921;-72
2023/08/18 04:17:55;;;;;;;;;;;;;;;;;;2083231;28;20302;-73
2023/08/18 04:19:16;;;;;;;;;;;;;;;;;;2084682;28;19921;-74
2023/08/18 04:20:36;;;;;;;;;;;;;;;;;;2076475;28;19921;-72
2023/08/18 04:21:57;;;;;;;;;;;;;;;;;;2089063;28;19921;-73
2023/08/18 04:23:18;;;;;;;;;;;;;;;;;;2086350;28;19920;-72
2023/08/18 04:24:39;;;;;;;;;;;;;;;;;;2079230;28;19917;-72
2023/08/18 04:26:00;;;;;;;;;;;;;;;;;;2082745;28;19967;-72
2023/08/18 04:27:21;;;;;;;;;;;;;;;;;;2082351;28;19946;-73
2023/08/18 04:28:42;;;;;;;;;;;;;;;;;;2077029;28;19921;-72
2023/08/18 04:30:03;;;;;;;;;;;;;;;;;;2080334;28;19975;-73
2023/08/18 04:31:24;;;;;;;;;;;;;;;;;;2077315;28;19913;-72
2023/08/18 04:32:45;;;;;;;;;;;;;;;;;;2075621;28;19913;-73
2023/08/18 04:34:05;;;;;;;;;;;;;;;;;;2081444;28;19928;-72
2023/08/18 04:35:26;;;;;;;;;;;;;;;;;;2082330;28;19921;-72
2023/08/18 04:36:47;;;;;;;;;;;;;;;;;;2076035;28;19929;-72
2023/08/18 04:38:07;;;;;;;;;;;;;;;;;;2074226;28;19983;-74
2023/08/18 04:39:29;;;;;;;;;;;;;;;;;;2080558;28;19917;-73
2023/08/18 04:40:50;;;;;;;;;;;;;;;;;;2077740;28;19913;-72
2023/08/18 04:42:10;;;;;;;;;;;;;;;;;;2076900;28;19967;-73
2023/08/18 04:43:31;;;;;;;;;;;;;;;;;;2082009;28;20374;-72
2023/08/18 04:44:52;;;;;;;;;;;;;;;;;;2079335;28;19925;-72
2023/08/18 04:46:13;;;;;;;;;;;;;;;;;;2070329;28;19917;-72
2023/08/18 04:47:34;;;;;;;;;;;;;;;;;;2072275;28;19951;-72
2023/08/18 04:48:55;;;;;;;;;;;;;;;;;;2068807;28;19917;-72
2023/08/18 04:50:15;;;;;;;;;;;;;;;;;;2066903;28;19918;-72
2023/08/18 04:51:36;;;;;;;;;;;;;;;;;;2072115;28;19921;-73
2023/08/18 04:52:57;;;;;;;;;;;;;;;;;;2076013;28;19917;-73
2023/08/18 04:54:18;;;;;;;;;;;;;;;;;;2066987;28;19988;-72
2023/08/18 04:55:39;;;;;;;;;;;;;;;;;;2079275;28;19913;-72
2023/08/18 04:56:59;;;;;;;;;;;;;;;;;;2081066;28;20300;-72
2023/08/18 04:58:20;;;;;;;;;;;;;;;;;;2092070;28;19941;-72
2023/08/18 04:59:41;;;;;;;;;;;;;;;;;;2091400;28;19931;-72
2023/08/18 05:01:01;;;;;;;;;;;;;;;;;;2081639;28;19913;-72
2023/08/18 05:02:22;;;;;;;;;;;;;;;;;;2092493;28;19912;-72
2023/08/18 05:03:43;;;;;;;;;;;;;;;;;;2094208;28;20399;-72
2023/08/18 05:05:03;;;;;;;;;;;;;;;;;;2090394;28;20317;-73
2023/08/18 05:06:24;;;;;;;;;;;;;;;;;;2089620;28;19923;-73
2023/08/18 05:07:45;;;;;;;;;;;;;;;;;;2089758;28;20402;-73
2023/08/18 05:09:06;;;;;;;;;;;;;;;;;;2091698;28;19967;-72
2023/08/18 05:10:26;;;;;;;;;;;;;;;;;;2091750;28;19913;-72
2023/08/18 05:11:47;;;;;;;;;;;;;;;;;;2091556;28;19962;-72
2023/08/18 05:13:08;;;;;;;;;;;;;;;;;;2091928;28;20313;-73
2023/08/18 05:14:28;;;;;;;;;;;;;;;;;;2093877;28;19912;-73
2023/08/18 05:15:49;;;;;;;;;;;;;;;;;;2091988;28;20042;-73
2023/08/18 05:17:10;;;;;;;;;;;;;;;;;;2089695;28;20424;-74
2023/08/18 05:18:30;;;;;;;;;;;;;;;;;;2089723;28;19916;-73
2023/08/18 05:19:51;;;;;;;;;;;;;;;;;;2084456;28;20371;-72
2023/08/18 05:21:12;;;;;;;;;;;;;;;;;;2092792;28;19927;-72
2023/08/18 05:22:32;;;;;;;;;;;;;;;;;;2094002;28;19920;-73
2023/08/18 05:23:53;;;;;;;;;;;;;;;;;;2098486;28;19920;-73
2023/08/18 05:25:14;;;;;;;;;;;;;;;;;;2092901;28;19913;-74
2023/08/18 05:26:35;;;;;;;;;;;;;;;;;;2081864;28;19921;-72
2023/08/18 05:27:55;;;;;;;;;;;;;;;;;;2094967;28;19912;-72
2023/08/18 05:29:16;;;;;;;;;;;;;;;;;;2095366;28;19953;-73
2023/08/18 05:30:37;;;;;;;;;;;;;;;;;;2094766;28;19967;-72
2023/08/18 05:31:58;;;;;;;;;;;;;;;;;;2095285;28;19974;-73
2023/08/18 05:33:18;;;;;;;;;;;;;;;;;;2086397;28;19913;-72
2023/08/18 05:34:39;;;;;;;;;;;;;;;;;;2089623;28;20391;-73
2023/08/18 05:36:00;;;;;;;;;;;;;;;;;;2091628;28;19912;-73
2023/08/18 05:37:20;;;;;;;;;;;;;;;;;;2091910;28;20387;-72
2023/08/18 05:38:41;;;;;;;;;;;;;;;;;;2098596;28;19971;-74
2023/08/18 05:40:02;;;;;;;;;;;;;;;;;;2095647;28;19916;-72
2023/08/18 05:41:24;;;;;;;;;;;;;;;;;;2092251;28;19967;-73
2023/08/18 05:42:44;;;;;;;;;;;;;;;;;;2085389;28;19932;-73
2023/08/18 05:44:05;;;;;;;;;;;;;;;;;;2097861;28;20122;-74
2023/08/18 05:45:27;;;;;;;;;;;;;;;;;;2095449;28;19921;-72
2023/08/18 05:46:48;;;;;;;;;;;;;;;;;;2092063;28;19928;-72
2023/08/18 05:48:08;;;;;;;;;;;;;;;;;;2092689;28;19967;-72
2023/08/18 05:49:29;;;;;;;;;;;;;;;;;;2098991;28;20053;-72
2023/08/18 05:50:50;;;;;;;;;;;;;;;;;;2095712;28;19919;-72
2023/08/18 05:52:10;;;;;;;;;;;;;;;;;;2094503;28;20529;-72
2023/08/18 05:53:31;;;;;;;;;;;;;;;;;;2092677;28;19913;-72
2023/08/18 05:54:52;;;;;;;;;;;;;;;;;;2093190;28;20288;-72
2023/08/18 05:56:13;;;;;;;;;;;;;;;;;;2098806;28;19916;-73
2023/08/18 05:57:35;;;;;;;;;;;;;;;;;;2093781;28;20284;-74
2023/08/18 05:58:55;;;;;;;;;;;;;;;;;;2099243;28;19985;-72
2023/08/18 06:00:16;;;;;;;;;;;;;;;;;;2099080;28;19912;-72
2023/08/18 06:01:37;;;;;;;;;;;;;;;;;;2082010;28;20645;-74
2023/08/18 06:02:57;;;;;;;;;;;;;;;;;;2089507;28;19917;-72
2023/08/18 06:04:18;;;;;;;;;;;;;;;;;;2095737;28;19923;-72
2023/08/18 06:05:39;;;;;;;;;;;;;;;;;;2098525;28;19921;-74
2023/08/18 06:07:00;;;;;;;;;;;;;;;;;;2096780;28;20279;-72
2023/08/18 06:08:20;;;;;;;;;;;;;;;;;;2090385;28;19913;-74
2023/08/18 06:09:41;;;;;;;;;;;;;;;;;;2098044;28;20336;-73
2023/08/18 06:11:02;;;;;;;;;;;;;;;;;;2096417;28;19959;-75
2023/08/18 06:12:23;;;;;;;;;;;;;;;;;;2092947;28;19920;-72
2023/08/18 06:13:43;;;;;;;;;;;;;;;;;;2102124;28;19920;-72
2023/08/18 06:15:04;;;;;;;;;;;;;;;;;;2097317;28;19912;-73
2023/08/18 06:16:25;;;;;;;;;;;;;;;;;;2098843;28;20344;-72
2023/08/18 06:17:45;;;;;;;;;;;;;;;;;;2099996;28;19928;-72
2023/08/18 06:19:08;;;;;;;;;;;;;;;;;;2095708;28;19927;-73
2023/08/18 06:20:28;;;;;;;;;;;;;;;;;;2095183;28;19932;-73
2023/08/18 06:21:49;;;;;;;;;;;;;;;;;;2092579;28;19917;-72
2023/08/18 06:23:10;;;;;;;;;;;;;;;;;;2091657;28;19916;-73
2023/08/18 06:24:30;;;;;;;;;;;;;;;;;;2095334;28;19920;-73
2023/08/18 06:25:51;;;;;;;;;;;;;;;;;;2086712;28;19913;-73
2023/08/18 06:27:12;;;;;;;;;;;;;;;;;;2092340;28;19916;-74
2023/08/18 06:28:33;;;;;;;;;;;;;;;;;;2087044;28;19939;-73
2023/08/18 06:29:53;;;;;;;;;;;;;;;;;;2083746;28;19912;-72
2023/08/18 06:31:14;;;;;;;;;;;;;;;;;;2091018;28;19912;-72
2023/08/18 06:32:35;;;;;;;;;;;;;;;;;;2093206;28;19920;-72
2023/08/18 06:33:55;;;;;;;;;;;;;;;;;;2099482;28;20318;-73
2023/08/18 06:35:16;;;;;;;;;;;;;;;;;;2087973;28;19944;-73
2023/08/18 06:36:37;;;;;;;;;;;;;;;;;;2090693;28;19925;-72
2023/08/18 06:37:58;;;;;;;;;;;;;;;;;;2092383;28;19974;-73
2023/08/18 06:39:18;;;;;;;;;;;;;;;;;;2093237;28;19913;-75
2023/08/18 06:40:39;;;;;;;;;;;;;;;;;;2094299;28;19970;-73
2023/08/18 06:42:00;;;;;;;;;;;;;;;;;;2089076;28;19962;-73
2023/08/18 06:43:21;;;;;;;;;;;;;;;;;;2098344;28;20215;-72
2023/08/18 06:44:41;;;;;;;;;;;;;;;;;;2091714;28;20429;-73
2023/08/18 06:46:02;;;;;;;;;;;;;;;;;;2091592;28;19985;-73
2023/08/18 06:47:23;;;;;;;;;;;;;;;;;;2099527;28;19920;-73
2023/08/18 06:48:44;;;;;;;;;;;;;;;;;;2095089;28;19967;-73
2023/08/18 06:50:05;;;;;;;;;;;;;;;;;;2091313;28;19913;-75
2023/08/18 06:51:26;;;;;;;;;;;;;;;;;;2096857;28;19916;-73
2023/08/18 06:52:47;;;;;;;;;;;;;;;;;;2085012;28;20503;-73
2023/08/18 06:54:08;;;;;;;;;;;;;;;;;;2092597;28;20341;-72
2023/08/18 06:55:29;;;;;;;;;;;;;;;;;;2097935;28;19912;-71
2023/08/18 06:56:49;;;;;;;;;;;;;;;;;;2088910;28;20372;-73
2023/08/18 06:58:12;;;;;;;;;;;;;;;;;;2081042;28;19925;-72
2023/08/18 06:59:33;;;;;;;;;;;;;;;;;;2075296;28;19917;-73
2023/08/18 07:00:54;;;;;;;;;;;;;;;;;;2087648;28;19936;-71
2023/08/18 07:02:14;;;;;;;;;;;;;;;;;;2085755;28;20002;-72
2023/08/18 07:03:35;;;;;;;;;;;;;;;;;;2084169;28;19917;-72
2023/08/18 07:04:56;;;;;;;;;;;;;;;;;;2085306;28;19917;-72
2023/08/18 07:06:17;;;;;;;;;;;;;;;;;;2091936;28;19920;-72
2023/08/18 07:07:38;;;;;;;;;;;;;;;;;;2086784;28;20312;-74
2023/08/18 07:08:58;;;;;;;;;;;;;;;;;;2084399;28;19913;-72
2023/08/18 07:10:20;;;;;;;;;;;;;;;;;;2083712;28;20327;-72
2023/08/18 07:11:41;;;;;;;;;;;;;;;;;;2078426;28;19920;-72
2023/08/18 07:13:03;;;;;;;;;;;;;;;;;;2085611;28;19912;-73
2023/08/18 07:14:24;;;;;;;;;;;;;;;;;;2072439;28;19914;-72
2023/08/18 07:15:44;;;;;;;;;;;;;;;;;;2084318;28;19917;-72
2023/08/18 07:17:05;;;;;;;;;;;;;;;;;;2091794;28;19920;-72
2023/08/18 07:18:26;;;;;;;;;;;;;;;;;;2079345;28;20290;-71
2023/08/18 07:19:46;;;;;;;;;;;;;;;;;;2080935;28;19968;-72
2023/08/18 07:21:07;;;;;;;;;;;;;;;;;;2088900;28;20400;-71
2023/08/18 07:22:28;;;;;;;;;;;;;;;;;;2078695;28;19971;-71
2023/08/18 07:23:48;;;;;;;;;;;;;;;;;;2089190;28;20765;-72
2023/08/18 07:25:10;;;;;;;;;;;;;;;;;;2087786;28;20195;-74
2023/08/18 07:26:31;;;;;;;;;;;;;;;;;;2083487;28;19931;-75
2023/08/18 07:27:52;;;;;;;;;;;;;;;;;;2080941;28;20288;-73
2023/08/18 07:29:13;;;;;;;;;;;;;;;;;;2091273;28;19939;-74
2023/08/18 07:30:33;;;;;;;;;;;;;;;;;;2086124;28;19912;-74
2023/08/18 07:31:55;;;;;;;;;;;;;;;;;;2078239;28;20000;-74
2023/08/18 07:33:16;;;;;;;;;;;;;;;;;;2082620;28;19982;-74
2023/08/18 07:34:36;;;;;;;;;;;;;;;;;;2089993;28;19916;-74
2023/08/18 07:35:57;;;;;;;;;;;;;;;;;;2088049;28;19947;-74
2023/08/18 07:37:18;;;;;;;;;;;;;;;;;;2085537;28;19916;-73
2023/08/18 07:38:38;;;;;;;;;;;;;;;;;;2086420;28;19920;-75
2023/08/18 07:39:59;;;;;;;;;;;;;;;;;;2083524;28;19913;-74
2023/08/18 07:41:20;;;;;;;;;;;;;;;;;;2088727;28;19916;-74
2023/08/18 07:42:40;;;;;;;;;;;;;;;;;;2089536;28;19908;-74
2023/08/18 07:44:02;;;;;;;;;;;;;;;;;;2089776;28;19913;-74
2023/08/18 07:45:23;;;;;;;;;;;;;;;;;;2088540;28;19917;-74
2023/08/18 07:46:43;;;;;;;;;;;;;;;;;;2086673;28;19908;-74
2023/08/18 07:48:04;;;;;;;;;;;;;;;;;;2070954;28;19918;-74
2023/08/18 07:49:25;;;;;;;;;;;;;;;;;;2068202;28;20091;-74
2023/08/18 07:50:45;;;;;;;;;;;;;;;;;;2078632;28;19936;-74
2023/08/18 07:52:06;;;;;;;;;;;;;;;;;;2080725;28;19913;-73
2023/08/18 07:53:27;;;;;;;;;;;;;;;;;;2078540;28;19914;-74
2023/08/18 07:54:48;;;;;;;;;;;;;;;;;;2081038;28;19920;-74
2023/08/18 07:56:08;;;;;;;;;;;;;;;;;;2075767;28;20400;-74
2023/08/18 07:57:29;;;;;;;;;;;;;;;;;;2078434;28;19933;-74
2023/08/18 07:58:50;;;;;;;;;;;;;;;;;;2085170;28;20377;-74
2023/08/18 08:00:17;;;;;;;;;;;;;;;;;;2081177;28;20233;-73
2023/08/18 08:01:38;;;;;;;;;;;;;;;;;;2084535;28;19920;-74
2023/08/18 08:02:58;;;;;;;;;;;;;;;;;;2081001;28;19916;-73
2023/08/18 08:04:19;;;;;;;;;;;;;;;;;;2083872;28;20549;-74
2023/08/18 08:05:40;;;;;;;;;;;;;;;;;;2086926;28;19912;-74
2023/08/18 08:07:01;;;;;;;;;;;;;;;;;;2080930;28;19970;-74
2023/08/18 08:08:21;;;;;;;;;;;;;;;;;;2076316;28;19921;-74
2023/08/18 08:09:42;;;;;;;;;;;;;;;;;;2081546;28;19921;-74
2023/08/18 08:11:03;;;;;;;;;;;;;;;;;;2078209;28;20203;-74
2023/08/18 08:12:24;;;;;;;;;;;;;;;;;;2075888;28;19925;-74
2023/08/18 08:13:44;;;;;;;;;;;;;;;;;;2077127;28;19924;-74
2023/08/18 08:15:05;;;;;;;;;;;;;;;;;;2085595;28;19920;-73
2023/08/18 08:16:26;;;;;;;;;;;;;;;;;;2078511;28;20304;-74
2023/08/18 08:17:46;;;;;;;;;;;;;;;;;;2082109;28;19924;-74
2023/08/18 08:19:09;;;;;;;;;;;;;;;;;;2081411;28;19909;-74
2023/08/18 08:20:30;;;;;;;;;;;;;;;;;;2073672;28;19920;-74
2023/08/18 08:21:50;;;;;;;;;;;;;;;;;;2082841;28;20360;-74
2023/08/18 08:23:11;;;;;;;;;;;;;;;;;;2088672;28;19912;-74
2023/08/18 08:24:32;;;;;;;;;;;;;;;;;;2094366;28;20005;-74
2023/08/18 08:25:52;;;;;;;;;;;;;;;;;;2089617;28;19912;-73
2023/08/18 08:27:15;;;;;;;;;;;;;;;;;;2090581;28;19913;-73
2023/08/18 08:28:36;;;;;;;;;;;;;;;;;;2089453;28;19929;-74
2023/08/18 08:29:56;;;;;;;;;;;;;;;;;;2089228;28;19919;-75
2023/08/18 08:31:17;;;;;;;;;;;;;;;;;;2080462;28;19947;-74
2023/08/18 08:32:38;;;;;;;;;;;;;;;;;;2084471;28;19921;-73
2023/08/18 08:33:58;;;;;;;;;;;;;;;;;;2084385;28;19970;-74
2023/08/18 08:35:19;;;;;;;;;;;;;;;;;;2076136;28;19986;-74
2023/08/18 08:36:40;;;;;;;;;;;;;;;;;;2080170;28;19944;-74
2023/08/18 08:38:00;;;;;;;;;;;;;;;;;;2083334;28;19920;-74
2023/08/18 08:39:21;;;;;;;;;;;;;;;;;;2081490;28;20304;-74
2023/08/18 08:40:42;;;;;;;;;;;;;;;;;;2085342;28;20368;-73
2023/08/18 08:42:03;;;;;;;;;;;;;;;;;;2084777;28;20387;-75
2023/08/18 08:43:23;;;;;;;;;;;;;;;;;;2081109;28;19920;-75
2023/08/18 08:44:44;;;;;;;;;;;;;;;;;;2076718;28;19914;-74
2023/08/18 08:46:05;;;;;;;;;;;;;;;;;;2080575;28;19913;-74
2023/08/18 08:47:26;;;;;;;;;;;;;;;;;;2079909;28;19932;-74
2023/08/18 08:48:46;;;;;;;;;;;;;;;;;;2076056;28;19909;-74
2023/08/18 08:50:07;;;;;;;;;;;;;;;;;;2080944;28;19924;-75
2023/08/18 08:51:28;;;;;;;;;;;;;;;;;;2083328;28;20383;-74
2023/08/18 08:52:48;;;;;;;;;;;;;;;;;;2081430;28;20352;-74
2023/08/18 08:54:09;;;;;;;;;;;;;;;;;;2083090;28;19940;-74
2023/08/18 08:55:31;;;;;;;;;;;;;;;;;;2088683;28;20300;-74
2023/08/18 08:56:51;;;;;;;;;;;;;;;;;;2086118;28;19940;-74
2023/08/18 08:58:12;;;;;;;;;;;;;;;;;;2083073;28;20390;-74
2023/08/18 08:59:33;;;;;;;;;;;;;;;;;;2087075;28;19924;-74
2023/08/18 09:00:53;;;;;;;;;;;;;;;;;;2086973;28;19912;-74
2023/08/18 09:02:14;;;;;;;;;;;;;;;;;;2089084;28;19919;-75
2023/08/18 09:03:35;;;;;;;;;;;;;;;;;;2087219;28;19913;-74
2023/08/18 09:05:00;;;;;;;;;;;;;;;;;;2085985;28;20001;-74
2023/08/18 09:06:20;;;;;;;;;;;;;;;;;;2094993;28;19912;-74
2023/08/18 09:07:41;;;;;;;;;;;;;;;;;;2087415;28;19932;-74
2023/08/18 09:09:03;;;;;;;;;;;;;;;;;;2079537;28;20435;-74
2023/08/18 09:10:23;;;;;;;;;;;;;;;;;;2088594;28;20035;-74
2023/08/18 09:11:45;;;;;;;;;;;;;;;;;;2082159;28;19909;-74